Time;durP1;ratioP1;P1;durP2;ratioP2;P2;SDS_P1;SDS_P2;PMS_P1;PMS_P2;Temp;Humidity;BMP_temperature;BMP_pressure;BME280_temperature;BME280_humidity;BME280_pressure;Samples;Min_cycle;Max_cycle;Signal;HPM_P1;HPM_P2
2021/09/04 00:00:11;;;;;;;0.60;0.60;;;7.60;99.90;;;;;;5112580;28;20286;-66
2021/09/04 00:02:37;;;;;;;0.80;0.80;;;7.60;99.90;;;;;;5110800;28;20686;-66
2021/09/04 00:05:03;;;;;;;0.80;0.80;;;7.60;99.90;;;;;;5094037;28;20232;-66
2021/09/04 00:07:30;;;;;;;0.70;0.70;;;7.60;99.90;;;;;;5093873;28;20290;-67
2021/09/04 00:09:57;;;;;;;0.70;0.70;;;7.60;99.90;;;;;;5111784;28;20742;-67
2021/09/04 00:12:22;;;;;;;0.60;0.60;;;7.60;99.90;;;;;;5129929;27;20203;-67
2021/09/04 00:14:48;;;;;;;0.60;0.60;;;7.60;99.90;;;;;;5115273;28;20187;-66
2021/09/04 00:17:14;;;;;;;0.70;0.70;;;7.60;99.90;;;;;;5097182;28;20293;-66
2021/09/04 00:19:40;;;;;;;0.70;0.70;;;7.60;99.90;;;;;;5096771;28;20211;-66
2021/09/04 00:22:05;;;;;;;0.70;0.70;;;7.60;99.90;;;;;;5115118;28;20210;-66
2021/09/04 00:24:31;;;;;;;0.50;0.50;;;7.60;99.90;;;;;;5112709;28;20207;-66
2021/09/04 00:26:57;;;;;;;0.60;0.60;;;7.60;99.90;;;;;;5109931;28;20218;-66
2021/09/04 00:29:22;;;;;;;0.70;0.70;;;7.50;99.90;;;;;;5096758;28;20203;-66
2021/09/04 00:31:48;;;;;;;0.63;0.63;;;7.60;99.90;;;;;;5114999;28;20737;-66
2021/09/04 00:34:15;;;;;;;0.60;0.60;;;7.50;99.90;;;;;;5114905;28;20272;-66
2021/09/04 00:36:41;;;;;;;0.60;0.60;;;7.40;99.90;;;;;;5116171;28;20214;-66
2021/09/04 00:39:07;;;;;;;0.40;0.40;;;7.40;99.90;;;;;;5114879;28;20200;-66
2021/09/04 00:41:34;;;;;;;0.70;0.70;;;7.40;99.90;;;;;;5096482;28;20218;-66
2021/09/04 00:44:02;;;;;;;0.60;0.60;;;7.40;99.90;;;;;;5091610;28;20200;-66
2021/09/04 00:46:28;;;;;;;0.60;0.60;;;7.40;99.90;;;;;;5084810;28;20248;-66
2021/09/04 00:48:53;;;;;;;0.70;0.70;;;7.40;99.90;;;;;;5096359;28;20207;-66
2021/09/04 00:51:19;;;;;;;0.60;0.60;;;7.40;99.90;;;;;;5122074;27;20222;-68
2021/09/04 00:53:45;;;;;;;0.70;0.70;;;7.50;99.90;;;;;;5135064;27;20226;-66
2021/09/04 00:56:15;;;;;;;0.60;0.60;;;7.50;99.90;;;;;;5117006;27;20691;-66
2021/09/04 00:58:41;;;;;;;0.60;0.60;;;7.60;99.90;;;;;;5098844;27;20187;-66
2021/09/04 01:01:07;;;;;;;0.70;0.70;;;7.50;99.90;;;;;;5134177;27;20293;-69
2021/09/04 01:03:33;;;;;;;0.50;0.50;;;7.40;99.90;;;;;;5142426;22;20285;-71
2021/09/04 01:06:00;;;;;;;0.65;0.65;;;7.40;99.90;;;;;;5092448;28;20208;-72
2021/09/04 01:08:25;;;;;;;0.68;0.68;;;7.30;99.90;;;;;;5096176;28;20563;-72
2021/09/04 01:10:52;;;;;;;0.60;0.60;;;7.20;99.90;;;;;;5095091;28;20200;-71
2021/09/04 01:13:20;;;;;;;0.60;0.60;;;7.20;99.90;;;;;;5094132;28;20236;-73
2021/09/04 01:15:46;;;;;;;0.65;0.65;;;7.10;99.90;;;;;;5094283;28;20669;-72
2021/09/04 01:18:12;;;;;;;0.80;0.80;;;7.10;99.90;;;;;;5093514;28;20269;-72
2021/09/04 01:20:41;;;;;;;0.70;0.70;;;7.00;99.90;;;;;;5076433;28;20211;-72
2021/09/04 01:23:07;;;;;;;0.70;0.70;;;6.90;99.90;;;;;;5076100;28;20632;-72
2021/09/04 01:25:33;;;;;;;0.68;0.68;;;6.90;99.90;;;;;;5094236;28;20283;-72
2021/09/04 01:28:01;;;;;;;0.60;0.60;;;6.90;99.90;;;;;;5095158;28;20227;-72
2021/09/04 01:30:28;;;;;;;0.60;0.60;;;6.90;99.90;;;;;;5093182;28;20593;-72
2021/09/04 01:32:54;;;;;;;0.70;0.70;;;6.80;99.90;;;;;;5093482;28;20265;-71
2021/09/04 01:35:23;;;;;;;0.70;0.70;;;6.70;99.90;;;;;;5076017;28;20200;-72
2021/09/04 01:37:49;;;;;;;0.60;0.60;;;6.60;99.90;;;;;;5093363;28;20196;-72
2021/09/04 01:40:16;;;;;;;0.60;0.60;;;6.60;99.90;;;;;;5077515;28;20200;-71
2021/09/04 01:42:43;;;;;;;0.70;0.70;;;6.60;99.90;;;;;;5094598;28;20204;-72
2021/09/04 01:45:09;;;;;;;0.90;0.90;;;6.50;99.90;;;;;;5094245;28;20512;-72
2021/09/04 01:47:35;;;;;;;0.70;0.70;;;6.50;99.90;;;;;;5094282;28;20673;-74
2021/09/04 01:50:02;;;;;;;0.60;0.60;;;6.30;99.90;;;;;;5076406;28;20345;-72
2021/09/04 01:52:28;;;;;;;0.70;0.70;;;6.30;99.90;;;;;;5093360;28;20585;-70
2021/09/04 01:54:54;;;;;;;0.70;0.70;;;6.20;99.90;;;;;;5077072;28;20225;-72
2021/09/04 01:57:20;;;;;;;0.70;0.70;;;6.10;99.90;;;;;;5094327;28;20208;-72
2021/09/04 01:59:46;;;;;;;0.68;0.68;;;6.10;99.90;;;;;;5077021;28;20230;-70
2021/09/04 02:02:13;;;;;;;0.68;0.68;;;6.00;99.90;;;;;;5073859;28;20280;-70
2021/09/04 02:04:39;;;;;;;0.70;0.70;;;6.00;99.90;;;;;;5074802;28;20686;-71
2021/09/04 02:07:05;;;;;;;0.70;0.70;;;5.90;99.90;;;;;;5092504;28;20219;-72
2021/09/04 02:09:31;;;;;;;0.60;0.60;;;5.80;99.90;;;;;;5075991;28;20218;-72
2021/09/04 02:12:00;;;;;;;0.70;0.70;;;5.70;99.90;;;;;;5099416;28;20220;-72
2021/09/04 02:14:25;;;;;;;0.70;0.70;;;5.70;99.90;;;;;;5093621;28;20196;-72
2021/09/04 02:16:51;;;;;;;0.70;0.70;;;5.60;99.90;;;;;;5092467;28;20566;-72
2021/09/04 02:19:17;;;;;;;0.70;0.70;;;5.50;99.90;;;;;;5075478;28;20208;-72
2021/09/04 02:21:42;;;;;;;0.70;0.70;;;5.50;99.90;;;;;;5093935;28;20282;-72
2021/09/04 02:24:08;;;;;;;0.60;0.60;;;5.40;99.90;;;;;;5076330;28;20200;-74
2021/09/04 02:26:34;;;;;;;0.70;0.70;;;5.30;99.90;;;;;;5093446;28;20209;-72
2021/09/04 02:28:59;;;;;;;0.70;0.70;;;5.40;99.90;;;;;;5092230;28;20192;-72
2021/09/04 02:31:25;;;;;;;0.70;0.70;;;5.30;99.90;;;;;;5093206;28;20267;-73
2021/09/04 02:33:56;;;;;;;0.80;0.80;;;5.40;99.90;;;;;;5076468;28;20214;-72
2021/09/04 02:36:23;;;;;;;0.57;0.57;;;5.40;99.90;;;;;;5075566;28;20205;-72
2021/09/04 02:38:49;;;;;;;0.55;0.55;;;5.40;99.90;;;;;;5091978;28;20283;-72
2021/09/04 02:41:16;;;;;;;0.73;0.73;;;5.50;99.90;;;;;;5091953;28;20674;-72
2021/09/04 02:43:41;;;;;;;0.70;0.70;;;5.50;99.90;;;;;;5073664;28;20293;-72
2021/09/04 02:46:07;;;;;;;0.70;0.70;;;5.60;99.90;;;;;;5092033;28;20212;-72
2021/09/04 02:48:34;;;;;;;0.70;0.70;;;5.80;99.90;;;;;;5093215;28;20203;-71
2021/09/04 02:51:00;;;;;;;0.60;0.60;;;5.80;99.90;;;;;;5076316;28;20295;-71
2021/09/04 02:53:26;;;;;;;0.60;0.60;;;6.00;99.90;;;;;;5074396;28;20290;-71
2021/09/04 02:55:51;;;;;;;0.70;0.70;;;6.10;99.90;;;;;;5074862;28;20563;-72
2021/09/04 02:58:17;;;;;;;0.65;0.65;;;6.10;99.90;;;;;;5092015;28;20220;-72
2021/09/04 03:00:43;;;;;;;0.60;0.60;;;6.00;99.90;;;;;;5075658;28;20207;-72
2021/09/04 03:03:08;;;;;;;0.70;0.70;;;6.00;99.90;;;;;;5090747;28;20196;-72
2021/09/04 03:05:35;;;;;;;0.60;0.60;;;6.00;99.90;;;;;;5074164;28;20219;-73
2021/09/04 03:08:01;;;;;;;0.70;0.70;;;6.00;99.90;;;;;;5092989;28;20559;-72
2021/09/04 03:10:27;;;;;;;0.80;0.80;;;6.00;99.90;;;;;;5074318;28;20696;-72
2021/09/04 03:12:53;;;;;;;0.70;0.70;;;6.00;99.90;;;;;;5091588;28;20208;-72
2021/09/04 03:15:19;;;;;;;0.60;0.60;;;5.90;99.90;;;;;;5091368;28;20544;-73
2021/09/04 03:17:44;;;;;;;0.60;0.60;;;5.90;99.90;;;;;;5092710;28;20283;-72
2021/09/04 03:20:11;;;;;;;0.70;0.70;;;5.80;99.90;;;;;;5074236;28;20672;-72
2021/09/04 03:22:37;;;;;;;0.70;0.70;;;5.90;99.90;;;;;;5073907;28;20212;-71
2021/09/04 03:25:04;;;;;;;0.60;0.60;;;5.90;99.90;;;;;;5091072;28;20212;-71
2021/09/04 03:27:30;;;;;;;0.70;0.70;;;5.80;99.90;;;;;;5091042;28;20214;-72
2021/09/04 03:29:57;;;;;;;0.70;0.70;;;5.80;99.90;;;;;;5073295;28;20288;-72
2021/09/04 03:32:23;;;;;;;0.60;0.60;;;5.80;99.90;;;;;;5074237;28;20253;-72
2021/09/04 03:34:49;;;;;;;0.80;0.80;;;5.70;99.90;;;;;;5091579;28;20204;-71
2021/09/04 03:37:15;;;;;;;0.90;0.90;;;5.60;99.90;;;;;;5092133;28;20251;-75
2021/09/04 03:39:40;;;;;;;0.70;0.70;;;5.60;99.90;;;;;;5091407;28;20560;-72
2021/09/04 03:42:06;;;;;;;0.77;0.77;;;5.50;99.90;;;;;;5092206;28;20295;-71
2021/09/04 03:44:32;;;;;;;0.70;0.70;;;5.40;99.90;;;;;;5090808;28;20297;-72
2021/09/04 03:46:57;;;;;;;0.63;0.63;;;5.40;99.90;;;;;;5090846;28;20598;-72
2021/09/04 03:49:23;;;;;;;0.77;0.77;;;5.30;99.90;;;;;;5090858;28;20200;-71
2021/09/04 03:51:49;;;;;;;0.68;0.68;;;5.40;99.90;;;;;;5073830;28;20311;-72
2021/09/04 03:54:15;;;;;;;0.73;0.73;;;5.40;99.90;;;;;;5074269;28;20648;-72
2021/09/04 03:56:41;;;;;;;0.80;0.80;;;5.40;99.90;;;;;;5090864;28;20211;-71
2021/09/04 03:59:06;;;;;;;0.70;0.70;;;5.40;99.90;;;;;;5091367;28;20662;-72
2021/09/04 04:01:33;;;;;;;0.80;0.80;;;5.40;99.90;;;;;;5090500;28;20200;-72
2021/09/04 04:03:59;;;;;;;0.75;0.75;;;5.30;99.90;;;;;;5091384;28;20216;-72
2021/09/04 04:06:25;;;;;;;0.80;0.80;;;5.30;99.90;;;;;;5092136;28;20204;-71
2021/09/04 04:08:50;;;;;;;0.70;0.70;;;5.30;99.90;;;;;;5073705;28;20222;-71
2021/09/04 04:11:16;;;;;;;0.77;0.77;;;5.20;99.90;;;;;;5092371;28;20211;-72
2021/09/04 04:13:42;;;;;;;0.70;0.70;;;5.20;99.90;;;;;;5092417;28;20203;-71
2021/09/04 04:16:08;;;;;;;0.70;0.70;;;5.20;99.90;;;;;;5091410;28;20563;-71
2021/09/04 04:18:34;;;;;;;0.80;0.80;;;5.10;99.90;;;;;;5073383;28;20204;-71
2021/09/04 04:21:01;;;;;;;0.60;0.60;;;5.00;99.90;;;;;;5092567;28;20188;-71
2021/09/04 04:23:27;;;;;;;0.70;0.70;;;5.00;99.90;;;;;;5092207;28;20662;-74
2021/09/04 04:25:53;;;;;;;0.70;0.70;;;4.90;99.90;;;;;;5091090;28;20204;-72
2021/09/04 04:28:19;;;;;;;0.60;0.60;;;4.90;99.90;;;;;;5092111;28;20232;-72
2021/09/04 04:30:45;;;;;;;0.70;0.70;;;4.80;99.90;;;;;;5090715;28;20666;-72
2021/09/04 04:33:12;;;;;;;0.70;0.70;;;4.70;99.90;;;;;;5073723;28;20211;-70
2021/09/04 04:35:37;;;;;;;0.80;0.80;;;4.70;99.90;;;;;;5073374;28;20578;-72
2021/09/04 04:38:03;;;;;;;0.80;0.80;;;4.60;99.90;;;;;;5090631;28;20226;-72
2021/09/04 04:40:29;;;;;;;0.70;0.70;;;4.70;99.90;;;;;;5090396;28;20291;-72
2021/09/04 04:42:55;;;;;;;0.75;0.75;;;4.70;99.90;;;;;;5090538;28;20211;-73
2021/09/04 04:45:23;;;;;;;0.70;0.70;;;4.70;99.90;;;;;;5073388;28;20196;-73
2021/09/04 04:47:49;;;;;;;0.70;0.70;;;4.80;99.90;;;;;;5073526;28;20200;-72
2021/09/04 04:50:18;;;;;;;0.70;0.70;;;4.80;99.90;;;;;;5090617;28;20276;-72
2021/09/04 04:52:44;;;;;;;0.80;0.80;;;4.90;99.90;;;;;;5073479;28;20208;-72
2021/09/04 04:55:10;;;;;;;0.60;0.60;;;4.90;99.90;;;;;;5091941;28;20220;-72
2021/09/04 04:57:36;;;;;;;0.70;0.70;;;5.00;99.90;;;;;;5073145;28;20685;-72
2021/09/04 05:00:03;;;;;;;0.80;0.80;;;5.00;99.90;;;;;;5076614;28;20575;-72
2021/09/04 05:02:28;;;;;;;0.80;0.80;;;5.10;99.90;;;;;;5075357;28;20207;-71
2021/09/04 05:04:54;;;;;;;0.80;0.80;;;5.10;99.90;;;;;;5093909;28;20238;-70
2021/09/04 05:07:20;;;;;;;0.75;0.75;;;5.30;99.90;;;;;;5093809;28;20202;-71
2021/09/04 05:09:45;;;;;;;0.65;0.65;;;5.30;99.90;;;;;;5094747;28;20267;-73
2021/09/04 05:12:11;;;;;;;0.70;0.70;;;5.40;99.90;;;;;;5094978;28;20639;-73
2021/09/04 05:14:37;;;;;;;0.80;0.80;;;5.50;99.90;;;;;;5093666;28;20203;-73
2021/09/04 05:17:02;;;;;;;0.73;0.73;;;5.60;99.90;;;;;;5093795;28;20200;-73
2021/09/04 05:19:30;;;;;;;0.77;0.77;;;5.70;99.90;;;;;;5076716;28;20222;-72
2021/09/04 05:21:57;;;;;;;0.70;0.70;;;5.80;99.90;;;;;;5093935;28;20287;-70
2021/09/04 05:24:22;;;;;;;0.63;0.63;;;5.90;99.90;;;;;;5076292;28;20204;-70
2021/09/04 05:26:48;;;;;;;0.50;0.50;;;6.00;99.90;;;;;;5094052;28;20223;-69
2021/09/04 05:29:14;;;;;;;0.60;0.60;;;6.10;99.90;;;;;;5093784;28;20204;-70
2021/09/04 05:31:40;;;;;;;0.57;0.57;;;6.30;99.90;;;;;;5093758;28;20211;-70
2021/09/04 05:34:05;;;;;;;0.60;0.60;;;6.30;99.90;;;;;;5094368;28;20210;-72
2021/09/04 05:36:31;;;;;;;0.60;0.60;;;6.40;99.90;;;;;;5095246;28;20219;-72
2021/09/04 05:38:57;;;;;;;0.70;0.70;;;6.60;99.90;;;;;;5093870;28;20666;-70
2021/09/04 05:41:22;;;;;;;0.73;0.73;;;6.70;99.90;;;;;;5093177;28;20325;-72
2021/09/04 05:43:48;;;;;;;0.70;0.70;;;6.90;99.90;;;;;;5093233;28;20211;-73
2021/09/04 05:46:14;;;;;;;0.70;0.70;;;7.00;99.90;;;;;;5076342;28;20200;-72
2021/09/04 05:48:39;;;;;;;0.80;0.80;;;7.10;99.90;;;;;;5092806;28;20234;-72
2021/09/04 05:51:05;;;;;;;0.73;0.73;;;7.20;99.90;;;;;;5094310;28;20200;-70
2021/09/04 05:53:31;;;;;;;0.70;0.70;;;7.40;99.90;;;;;;5094158;28;20195;-73
2021/09/04 05:55:56;;;;;;;0.80;0.80;;;7.40;99.90;;;;;;5093092;28;20723;-72
2021/09/04 05:58:26;;;;;;;0.70;0.70;;;7.50;99.90;;;;;;5075816;28;20568;-72
2021/09/04 06:00:52;;;;;;;0.70;0.70;;;7.60;99.90;;;;;;5076429;28;20760;-72
2021/09/04 06:03:18;;;;;;;0.80;0.80;;;7.70;99.90;;;;;;5093779;28;20200;-73
2021/09/04 06:05:43;;;;;;;0.70;0.70;;;7.80;99.90;;;;;;5092450;28;20226;-72
2021/09/04 06:08:09;;;;;;;0.70;0.70;;;7.90;99.90;;;;;;5092595;28;20226;-72
2021/09/04 06:10:35;;;;;;;0.70;0.70;;;8.00;99.90;;;;;;5075272;28;20304;-72
2021/09/04 06:13:00;;;;;;;0.80;0.80;;;8.10;99.90;;;;;;5075434;28;20224;-71
2021/09/04 06:15:26;;;;;;;0.75;0.75;;;8.20;99.90;;;;;;5076970;28;20235;-71
2021/09/04 06:17:52;;;;;;;0.70;0.70;;;8.30;99.90;;;;;;5092998;28;20211;-71
2021/09/04 06:20:18;;;;;;;0.60;0.60;;;8.30;99.90;;;;;;5085008;28;20630;-71
2021/09/04 06:22:43;;;;;;;0.70;0.70;;;8.30;99.90;;;;;;5092497;28;20207;-72
2021/09/04 06:25:10;;;;;;;0.70;0.70;;;8.40;99.90;;;;;;5093823;28;20204;-72
2021/09/04 06:27:36;;;;;;;0.70;0.70;;;8.50;99.90;;;;;;5075885;28;20671;-73
2021/09/04 06:30:03;;;;;;;0.60;0.60;;;8.60;99.90;;;;;;5076793;28;20295;-73
2021/09/04 06:32:29;;;;;;;0.70;0.70;;;8.60;99.90;;;;;;5093837;28;20208;-72
2021/09/04 06:34:54;;;;;;;0.70;0.70;;;8.70;99.90;;;;;;5093746;28;20253;-73
2021/09/04 06:37:20;;;;;;;0.70;0.70;;;8.70;99.90;;;;;;5075963;28;20223;-72
2021/09/04 06:39:46;;;;;;;0.63;0.63;;;8.70;99.90;;;;;;5076304;28;20685;-73
2021/09/04 06:42:12;;;;;;;0.70;0.70;;;8.80;99.90;;;;;;5094288;28;20203;-71
2021/09/04 06:44:37;;;;;;;0.70;0.70;;;8.90;99.90;;;;;;5092665;28;20582;-72
2021/09/04 06:47:03;;;;;;;0.70;0.70;;;9.00;99.90;;;;;;5093678;28;20705;-75
2021/09/04 06:49:29;;;;;;;0.70;0.70;;;9.00;99.90;;;;;;5077530;28;20204;-72
2021/09/04 06:51:54;;;;;;;0.60;0.60;;;9.10;99.90;;;;;;5075717;28;20207;-72
2021/09/04 06:54:24;;;;;;;0.60;0.60;;;9.20;99.90;;;;;;5092809;28;20239;-72
2021/09/04 06:56:50;;;;;;;0.70;0.70;;;9.40;99.90;;;;;;5076656;28;20580;-72
2021/09/04 06:59:16;;;;;;;0.70;0.70;;;9.50;99.90;;;;;;5092011;28;20274;-72
2021/09/04 07:01:42;;;;;;;0.70;0.70;;;9.60;99.90;;;;;;5075849;28;20607;-72
2021/09/04 07:04:13;;;;;;;0.60;0.60;;;9.60;99.90;;;;;;5075674;28;20682;-72
2021/09/04 07:06:39;;;;;;;0.60;0.60;;;9.70;99.90;;;;;;5091461;28;20215;-71
2021/09/04 07:09:04;;;;;;;0.60;0.60;;;9.90;99.90;;;;;;5075926;28;20200;-72
2021/09/04 07:11:30;;;;;;;0.70;0.70;;;10.00;99.90;;;;;;5092525;28;20218;-72
2021/09/04 07:13:56;;;;;;;0.70;0.70;;;10.00;99.90;;;;;;5091895;28;20550;-72
2021/09/04 07:16:22;;;;;;;0.60;0.60;;;10.10;99.90;;;;;;5075388;28;20207;-72
2021/09/04 07:18:48;;;;;;;0.70;0.70;;;10.10;99.90;;;;;;5074393;28;20199;-73
2021/09/04 07:21:13;;;;;;;0.65;0.65;;;10.20;99.90;;;;;;5074873;28;20743;-72
2021/09/04 07:23:39;;;;;;;0.65;0.65;;;10.40;99.90;;;;;;5091157;28;20200;-72
2021/09/04 07:26:05;;;;;;;0.68;0.68;;;10.60;99.90;;;;;;5090969;28;20208;-71
2021/09/04 07:28:31;;;;;;;0.68;0.68;;;10.80;99.90;;;;;;5072922;28;20204;-72
2021/09/04 07:30:58;;;;;;;0.60;0.60;;;10.90;99.90;;;;;;5073348;28;20200;-72
2021/09/04 07:33:24;;;;;;;0.70;0.70;;;11.00;99.90;;;;;;5073148;28;20192;-72
2021/09/04 07:35:49;;;;;;;0.80;0.80;;;10.90;99.90;;;;;;5075388;28;20261;-73
2021/09/04 07:38:15;;;;;;;0.60;0.60;;;10.90;99.90;;;;;;5075712;28;20208;-72
2021/09/04 07:40:42;;;;;;;0.60;0.60;;;10.90;99.90;;;;;;5092229;28;20196;-73
2021/09/04 07:43:08;;;;;;;0.60;0.60;;;11.00;99.90;;;;;;5075571;28;20231;-72
2021/09/04 07:45:38;;;;;;;0.60;0.60;;;11.00;99.90;;;;;;5076708;28;20212;-73
2021/09/04 07:48:05;;;;;;;0.60;0.60;;;11.10;99.90;;;;;;5091102;28;20690;-73
2021/09/04 07:50:31;;;;;;;0.60;0.60;;;11.20;99.90;;;;;;5091591;28;20252;-72
2021/09/04 07:52:56;;;;;;;0.60;0.60;;;11.30;99.90;;;;;;5092314;28;20208;-72
2021/09/04 07:55:22;;;;;;;0.60;0.60;;;11.30;99.90;;;;;;5090849;28;20295;-72
2021/09/04 07:57:48;;;;;;;0.93;0.90;;;11.40;99.90;;;;;;5091567;28;20674;-72
2021/09/04 08:00:14;;;;;;;0.60;0.60;;;11.60;99.90;;;;;;5091035;28;20196;-72
2021/09/04 08:02:40;;;;;;;0.60;0.60;;;11.70;99.90;;;;;;5090559;28;20208;-72
2021/09/04 08:05:07;;;;;;;0.75;0.75;;;11.90;99.90;;;;;;5090693;28;20238;-72
2021/09/04 08:07:33;;;;;;;0.60;0.60;;;12.10;99.90;;;;;;5074893;28;20245;-72
2021/09/04 08:09:58;;;;;;;0.70;0.70;;;12.20;99.90;;;;;;5092158;28;20200;-71
2021/09/04 08:12:24;;;;;;;0.60;0.60;;;12.20;99.90;;;;;;5090685;28;20215;-72
2021/09/04 08:14:50;;;;;;;0.60;0.60;;;12.30;99.90;;;;;;5090869;28;20562;-72
2021/09/04 08:17:16;;;;;;;0.60;0.60;;;12.60;99.90;;;;;;5073480;28;20196;-72
2021/09/04 08:19:42;;;;;;;0.60;0.60;;;12.80;99.90;;;;;;5072763;28;20262;-72
2021/09/04 08:22:08;;;;;;;0.55;0.55;;;12.90;99.90;;;;;;5090970;28;20212;-71
2021/09/04 08:24:34;;;;;;;0.65;0.65;;;13.00;99.90;;;;;;5091935;28;20233;-72
2021/09/04 08:27:00;;;;;;;0.50;0.50;;;13.30;99.90;;;;;;5074070;28;20200;-71
2021/09/04 08:29:26;;;;;;;0.50;0.50;;;13.30;99.90;;;;;;5090735;28;20276;-72
2021/09/04 08:31:52;;;;;;;0.52;0.52;;;13.30;99.90;;;;;;5091939;28;20223;-71
2021/09/04 08:34:18;;;;;;;0.60;0.60;;;13.50;99.90;;;;;;5094016;28;20208;-72
2021/09/04 08:36:44;;;;;;;0.50;0.50;;;13.70;99.90;;;;;;5094362;28;20196;-70
2021/09/04 08:39:09;;;;;;;0.70;0.70;;;13.70;99.90;;;;;;5094362;28;20211;-72
2021/09/04 08:41:36;;;;;;;0.60;0.60;;;13.60;99.90;;;;;;5094424;28;20216;-71
2021/09/04 08:44:04;;;;;;;0.50;0.50;;;13.70;99.90;;;;;;5094975;28;20196;-72
2021/09/04 08:46:35;;;;;;;0.60;0.60;;;13.90;99.90;;;;;;5095380;28;20726;-70
2021/09/04 08:49:03;;;;;;;0.57;0.57;;;14.10;99.90;;;;;;5095479;28;20200;-71
2021/09/04 08:51:29;;;;;;;0.57;0.57;;;14.50;99.90;;;;;;5093788;28;20295;-71
2021/09/04 08:53:56;;;;;;;0.50;0.50;;;14.80;99.90;;;;;;5077247;28;20302;-72
2021/09/04 08:56:21;;;;;;;0.40;0.40;;;14.80;99.90;;;;;;5095350;28;20196;-71
2021/09/04 08:58:47;;;;;;;0.50;0.50;;;14.80;99.90;;;;;;5095416;28;20283;-71
2021/09/04 09:01:16;;;;;;;0.40;0.40;;;15.00;99.90;;;;;;5076658;28;20291;-71
2021/09/04 09:03:43;;;;;;;0.40;0.40;;;15.10;99.90;;;;;;5093632;28;20207;-71
2021/09/04 09:06:09;;;;;;;0.40;0.40;;;15.30;99.90;;;;;;5074675;28;20738;-71
2021/09/04 09:08:44;;;;;;;1.02;0.93;;;15.40;99.90;;;;;;5076107;28;20285;-71
2021/09/04 09:11:10;;;;;;;0.40;0.40;;;15.20;99.90;;;;;;5074416;28;20200;-71
2021/09/04 09:13:49;;;;;;;0.40;0.40;;;15.50;99.90;;;;;;5074443;28;20255;-70
2021/09/04 09:16:17;;;;;;;0.40;0.40;;;15.70;99.90;;;;;;5074576;28;20246;-70
2021/09/04 09:18:58;;;;;;;0.40;0.40;;;16.00;99.90;;;;;;5076106;28;20200;-71
2021/09/04 09:21:27;;;;;;;0.40;0.40;;;16.00;99.90;;;;;;5074339;28;20232;-70
2021/09/04 09:24:14;;;;;;;0.40;0.40;;;15.80;99.90;;;;;;5078655;28;20668;-70
2021/09/04 09:26:53;;;;;;;0.40;0.40;;;15.70;99.90;;;;;;5063628;28;20270;-70
2021/09/04 09:29:32;;;;;;;0.40;0.40;;;15.80;99.90;;;;;;5073259;28;20231;-71
2021/09/04 09:32:11;;;;;;;0.30;0.30;;;15.90;99.90;;;;;;5072456;28;20213;-71
2021/09/04 09:34:42;;;;;;;0.40;0.40;;;16.20;99.90;;;;;;5074145;28;20211;-71
2021/09/04 09:37:09;;;;;;;0.40;0.40;;;16.10;99.90;;;;;;5065620;28;20206;-70
2021/09/04 09:39:41;;;;;;;0.50;0.50;;;16.20;99.90;;;;;;5065621;28;20200;-71
2021/09/04 09:42:09;;;;;;;0.40;0.40;;;16.40;99.90;;;;;;5074375;28;20291;-71
2021/09/04 09:44:36;;;;;;;0.40;0.40;;;16.40;99.90;;;;;;5074163;28;20216;-71
2021/09/04 09:47:05;;;;;;;0.32;0.32;;;16.40;99.90;;;;;;5074099;28;20207;-70
2021/09/04 09:49:33;;;;;;;0.40;0.40;;;16.60;99.90;;;;;;5073797;28;20239;-70
2021/09/04 09:52:14;;;;;;;0.30;0.30;;;16.70;99.90;;;;;;5073767;28;20205;-70
2021/09/04 09:54:40;;;;;;;0.30;0.30;;;16.90;99.90;;;;;;5073495;28;20213;-70
2021/09/04 09:57:11;;;;;;;0.30;0.30;;;16.70;99.90;;;;;;5068798;28;20672;-70
2021/09/04 09:59:44;;;;;;;0.40;0.40;;;16.90;99.40;;;;;;5060497;28;20262;-70
2021/09/04 10:02:12;;;;;;;0.30;0.30;;;16.90;99.90;;;;;;5074819;28;20663;-70
2021/09/04 10:04:40;;;;;;;0.45;0.45;;;16.80;99.00;;;;;;5080820;28;20294;-71
2021/09/04 10:07:08;;;;;;;0.40;0.40;;;17.00;99.90;;;;;;5092892;28;20698;-71
2021/09/04 10:09:39;;;;;;;0.30;0.30;;;16.90;99.90;;;;;;5092323;28;20273;-71
2021/09/04 10:12:06;;;;;;;0.40;0.40;;;16.90;99.90;;;;;;5093721;28;20208;-70
2021/09/04 10:14:34;;;;;;;0.40;0.40;;;17.30;96.60;;;;;;5093710;28;20283;-71
2021/09/04 10:17:02;;;;;;;0.40;0.40;;;17.10;97.00;;;;;;5092344;28;20185;-70
2021/09/04 10:19:29;;;;;;;0.30;0.30;;;17.20;97.90;;;;;;5056455;28;20685;-71
2021/09/04 10:22:06;;;;;;;0.40;0.40;;;17.10;96.20;;;;;;5092455;28;20184;-72
2021/09/04 10:24:49;;;;;;;0.73;0.73;;;17.20;96.80;;;;;;5093280;28;20191;-70
2021/09/04 10:27:31;;;;;;;0.40;0.40;;;17.10;97.50;;;;;;5075322;28;20201;-71
2021/09/04 10:29:57;;;;;;;0.47;0.47;;;17.30;96.80;;;;;;5076401;28;20577;-71
2021/09/04 10:32:22;;;;;;;0.30;0.30;;;17.50;95.60;;;;;;5092123;28;20210;-70
2021/09/04 10:35:04;;;;;;;0.52;0.52;;;17.50;95.10;;;;;;5092142;28;20192;-71
2021/09/04 10:37:29;;;;;;;0.30;0.30;;;17.70;95.90;;;;;;5091923;28;20208;-71
2021/09/04 10:40:03;;;;;;;0.30;0.30;;;17.80;96.50;;;;;;5092913;28;20196;-71
2021/09/04 10:42:33;;;;;;;0.30;0.30;;;18.10;93.70;;;;;;5090539;28;20234;-70
2021/09/04 10:45:08;;;;;;;0.30;0.30;;;18.00;95.40;;;;;;5091911;28;20336;-71
2021/09/04 10:47:51;;;;;;;0.30;0.30;;;18.00;95.20;;;;;;5072696;28;20642;-72
2021/09/04 10:50:18;;;;;;;0.30;0.30;;;18.30;95.00;;;;;;5075678;28;20221;-71
2021/09/04 10:52:46;;;;;;;0.30;0.30;;;18.40;95.80;;;;;;5093176;28;20215;-71
2021/09/04 10:55:20;;;;;;;0.30;0.30;;;18.60;94.60;;;;;;5076104;28;20228;-71
2021/09/04 10:57:47;;;;;;;0.30;0.30;;;18.60;94.30;;;;;;5091233;28;20288;-71
2021/09/04 11:00:19;;;;;;;0.30;0.30;;;18.70;92.30;;;;;;5093080;28;20286;-74
2021/09/04 11:03:00;;;;;;;0.30;0.30;;;19.00;93.30;;;;;;5092666;28;20214;-71
2021/09/04 11:05:26;;;;;;;0.30;0.30;;;19.00;92.10;;;;;;5091456;28;20227;-71
2021/09/04 11:08:00;;;;;;;0.40;0.40;;;18.70;91.70;;;;;;5091717;28;20214;-71
2021/09/04 11:10:26;;;;;;;0.30;0.30;;;18.10;91.50;;;;;;5091768;28;20200;-71
2021/09/04 11:13:34;;;;;;;0.30;0.30;;;17.90;92.50;;;;;;5092679;28;20244;-71
2021/09/04 11:16:26;;;;;;;0.22;0.22;;;18.30;91.70;;;;;;5047102;28;20612;-71
2021/09/04 11:18:52;;;;;;;0.30;0.30;;;18.30;92.60;;;;;;5091412;28;20201;-71
2021/09/04 11:21:18;;;;;;;0.30;0.30;;;18.70;92.10;;;;;;5074300;28;20208;-71
2021/09/04 11:23:44;;;;;;;0.20;0.20;;;18.60;91.80;;;;;;5091235;28;20693;-71
2021/09/04 11:26:10;;;;;;;0.30;0.30;;;18.30;90.60;;;;;;5074191;28;20188;-71
2021/09/04 11:28:36;;;;;;;0.30;0.30;;;18.40;90.70;;;;;;5093115;28;20688;-70
2021/09/04 11:31:04;;;;;;;0.30;0.30;;;18.30;90.30;;;;;;5091628;28;20245;-70
2021/09/04 11:33:30;;;;;;;0.30;0.30;;;18.30;91.70;;;;;;5074366;28;20261;-71
2021/09/04 11:35:56;;;;;;;0.30;0.30;;;18.50;91.40;;;;;;5091842;28;20200;-70
2021/09/04 11:38:23;;;;;;;0.30;0.30;;;18.40;91.10;;;;;;5091548;28;20192;-71
2021/09/04 11:40:51;;;;;;;0.30;0.30;;;18.40;92.70;;;;;;5092491;28;20685;-70
2021/09/04 11:43:18;;;;;;;0.40;0.40;;;18.60;91.50;;;;;;5074633;28;20743;-70
2021/09/04 11:45:44;;;;;;;0.20;0.20;;;18.70;89.60;;;;;;5091280;28;20280;-70
2021/09/04 11:48:12;;;;;;;0.30;0.30;;;18.70;91.20;;;;;;5075221;28;20666;-70
2021/09/04 11:50:38;;;;;;;0.30;0.30;;;18.60;91.00;;;;;;5091986;28;20574;-70
2021/09/04 11:53:13;;;;;;;3.13;1.05;;;18.10;90.90;;;;;;5090735;28;20200;-70
2021/09/04 11:55:40;;;;;;;0.25;0.25;;;18.40;92.50;;;;;;5090571;28;20576;-70
2021/09/04 11:58:14;;;;;;;0.30;0.30;;;18.60;90.50;;;;;;5090804;28;20650;-70
2021/09/04 12:00:43;;;;;;;0.40;0.40;;;18.70;90.70;;;;;;5090544;28;20207;-70
2021/09/04 12:03:10;;;;;;;0.30;0.30;;;18.80;89.70;;;;;;5074993;28;20265;-71
2021/09/04 12:05:42;;;;;;;0.30;0.30;;;19.00;92.40;;;;;;5090341;28;20706;-70
2021/09/04 12:08:14;;;;;;;0.30;0.30;;;18.80;89.30;;;;;;5092275;28;20204;-70
2021/09/04 12:10:42;;;;;;;0.30;0.30;;;18.90;91.00;;;;;;5094912;28;20230;-70
2021/09/04 12:13:20;;;;;;;0.40;0.40;;;19.40;92.10;;;;;;5077818;28;20301;-71
2021/09/04 12:15:46;;;;;;;0.30;0.30;;;19.80;86.50;;;;;;5079269;28;20208;-70
2021/09/04 12:18:12;;;;;;;0.30;0.30;;;19.90;83.40;;;;;;5079097;28;20688;-70
2021/09/04 12:20:39;;;;;;;0.20;0.20;;;19.80;85.30;;;;;;5077398;28;20292;-70
2021/09/04 12:23:11;;;;;;;0.30;0.30;;;19.80;89.80;;;;;;5094638;28;20687;-70
2021/09/04 12:25:37;;;;;;;0.30;0.30;;;19.80;87.50;;;;;;5082448;28;20231;-70
2021/09/04 12:28:06;;;;;;;0.30;0.30;;;19.50;83.70;;;;;;5076367;28;20223;-71
2021/09/04 12:30:34;;;;;;;0.28;0.28;;;19.20;86.00;;;;;;5076293;28;20666;-70
2021/09/04 12:33:08;;;;;;;0.30;0.30;;;18.90;89.10;;;;;;5091530;28;20231;-70
2021/09/04 12:36:09;;;;;;;0.40;0.40;;;19.30;88.80;;;;;;5077071;28;20207;-70
2021/09/04 12:38:43;;;;;;;0.60;0.40;;;19.70;87.10;;;;;;5030753;28;20548;-70
2021/09/04 12:41:10;;;;;;;0.30;0.30;;;19.60;84.50;;;;;;5016411;28;20568;-71
2021/09/04 12:43:53;;;;;;;0.30;0.30;;;18.90;82.50;;;;;;5030836;28;20206;-70
2021/09/04 12:46:26;;;;;;;0.30;0.30;;;18.50;84.80;;;;;;5031986;28;20210;-71
2021/09/04 12:48:52;;;;;;;0.40;0.40;;;18.20;85.90;;;;;;5032082;28;20206;-71
2021/09/04 12:51:18;;;;;;;0.30;0.30;;;18.20;86.00;;;;;;5026470;28;20677;-71
2021/09/04 12:54:02;;;;;;;0.30;0.30;;;18.10;87.30;;;;;;5017908;28;20214;-70